createdAt,value
2024-02-29T00:00:05.924Z,84.87
2024-02-29T00:02:51.143Z,85.48
2024-02-29T00:05:37.736Z,85.48
2024-02-29T00:08:23.064Z,85.55
2024-02-29T00:11:08.361Z,85.87
2024-02-29T00:13:53.958Z,86.05
2024-02-29T00:16:40.735Z,86.26
2024-02-29T00:19:25.874Z,85.88
2024-02-29T00:22:11.430Z,85.66
2024-02-29T00:24:56.878Z,85.80
2024-02-29T00:27:42.312Z,85.70
2024-02-29T00:30:27.667Z,86.12
2024-02-29T00:33:12.998Z,85.82
2024-02-29T00:36:08.902Z,85.75
2024-02-29T00:39:05.724Z,85.42
2024-02-29T00:41:56.964Z,85.68
2024-02-29T00:44:42.437Z,85.60
2024-02-29T00:47:27.904Z,85.34
2024-02-29T00:50:13.656Z,86.41
2024-02-29T00:52:58.669Z,86.38
2024-02-29T00:55:44.617Z,86.22
2024-02-29T00:58:29.854Z,86.40
2024-02-29T01:01:15.341Z,86.24
2024-02-29T01:04:00.689Z,85.85
2024-02-29T01:06:46.050Z,86.17
2024-02-29T01:09:31.430Z,86.45
2024-02-29T01:12:16.860Z,85.86
2024-02-29T01:15:02.111Z,86.07
2024-02-29T01:17:50.637Z,86.16
2024-02-29T01:20:36.983Z,86.11
2024-02-29T01:23:22.370Z,86.05
2024-02-29T01:26:08.082Z,85.94
2024-02-29T01:28:53.426Z,85.71
2024-02-29T01:31:38.902Z,85.90
2024-02-29T01:34:24.369Z,85.97
2024-02-29T01:37:09.828Z,85.76
2024-02-29T01:39:55.181Z,86.64
2024-02-29T01:42:43.797Z,86.37
2024-02-29T01:45:29.690Z,86.04
2024-02-29T01:48:15.478Z,86.08
2024-02-29T01:51:00.629Z,86.52
2024-02-29T01:53:46.290Z,86.76
2024-02-29T01:56:31.813Z,86.56
2024-02-29T01:59:18.344Z,86.35
2024-02-29T02:02:03.672Z,86.71
2024-02-29T02:04:48.967Z,86.94
2024-02-29T02:07:36.710Z,86.93
2024-02-29T02:10:22.903Z,87.05
2024-02-29T02:13:09.019Z,87.21
2024-02-29T02:15:54.861Z,86.94
2024-02-29T02:18:40.291Z,87.11
2024-02-29T02:21:25.622Z,86.73
2024-02-29T02:24:11.049Z,86.93
2024-02-29T02:26:56.686Z,87.17
2024-02-29T02:29:41.930Z,87.15
2024-02-29T02:32:27.349Z,86.93
2024-02-29T02:35:12.912Z,87.51
2024-02-29T02:37:58.062Z,86.89
2024-02-29T02:40:43.607Z,87.41
2024-02-29T02:43:29.183Z,87.47
2024-02-29T02:46:14.763Z,87.04
2024-02-29T02:49:00.191Z,87.41
2024-02-29T02:51:45.914Z,87.72
2024-02-29T02:54:31.198Z,88.46
2024-02-29T02:57:17.068Z,88.47
2024-02-29T03:00:02.445Z,88.29
2024-02-29T03:02:47.933Z,88.12
2024-02-29T03:05:33.285Z,87.81
2024-02-29T03:08:18.771Z,87.65
2024-02-29T03:11:04.525Z,87.70
2024-02-29T03:13:50.025Z,87.73
2024-02-29T03:16:35.742Z,87.67
2024-02-29T03:19:20.826Z,87.57
2024-02-29T03:22:06.153Z,87.22
2024-02-29T03:24:53.339Z,87.31
2024-02-29T03:27:38.979Z,87.16
2024-02-29T03:30:24.401Z,86.32
2024-02-29T03:33:10.718Z,86.23
2024-02-29T03:35:56.239Z,86.24
2024-02-29T03:38:41.741Z,86.38
2024-02-29T03:41:27.811Z,86.72
2024-02-29T03:44:12.935Z,86.53
2024-02-29T03:46:58.350Z,85.78
2024-02-29T03:49:43.663Z,86.00
2024-02-29T03:52:29.070Z,85.71
2024-02-29T03:55:14.827Z,85.80
2024-02-29T03:58:00.360Z,85.65
2024-02-29T04:00:45.664Z,86.15
2024-02-29T04:03:31.117Z,85.42
2024-02-29T04:06:16.544Z,85.28
2024-02-29T04:09:02.734Z,85.31
2024-02-29T04:11:47.954Z,85.31
2024-02-29T04:14:35.171Z,85.12
2024-02-29T04:17:20.585Z,85.41
2024-02-29T04:20:07.011Z,85.60
2024-02-29T04:22:52.128Z,85.32
2024-02-29T04:25:38.280Z,85.62
2024-02-29T04:28:23.751Z,86.02
2024-02-29T04:31:10.200Z,86.53
2024-02-29T04:33:55.650Z,86.12
2024-02-29T04:36:41.041Z,86.98
2024-02-29T04:39:26.528Z,86.84
2024-02-29T04:42:11.972Z,86.56
2024-02-29T04:44:57.524Z,86.72
2024-02-29T04:47:43.168Z,86.65
2024-02-29T04:50:28.590Z,86.47
2024-02-29T04:53:15.381Z,86.20
2024-02-29T04:56:01.828Z,86.96
2024-02-29T04:58:47.029Z,87.42
2024-02-29T05:01:33.433Z,87.35
2024-02-29T05:04:18.707Z,87.34
2024-02-29T05:07:05.211Z,87.53
2024-02-29T05:09:50.654Z,87.41
2024-02-29T05:12:36.112Z,87.34
2024-02-29T05:15:22.290Z,86.94
2024-02-29T05:18:08.375Z,87.02
2024-02-29T05:20:53.973Z,86.71
2024-02-29T05:23:39.445Z,86.30
2024-02-29T05:26:24.868Z,86.66
2024-02-29T05:29:10.244Z,86.98
2024-02-29T05:31:55.832Z,86.98
2024-02-29T05:34:41.013Z,87.42
2024-02-29T05:37:26.551Z,87.08
2024-02-29T05:40:14.110Z,87.38
2024-02-29T05:42:59.225Z,87.54
2024-02-29T05:45:44.979Z,87.30
2024-02-29T05:48:35.783Z,87.77
2024-02-29T05:51:21.357Z,87.12
2024-02-29T05:54:06.957Z,87.73
2024-02-29T05:56:51.952Z,87.94
2024-02-29T05:59:37.542Z,87.79
2024-02-29T06:02:22.716Z,87.45
2024-02-29T06:05:09.071Z,87.81
2024-02-29T06:07:54.927Z,87.85
2024-02-29T06:10:40.062Z,88.30
2024-02-29T06:13:29.965Z,88.47
2024-02-29T06:16:15.642Z,88.67
2024-02-29T06:19:01.206Z,88.71
2024-02-29T06:21:47.102Z,88.11
2024-02-29T06:24:32.375Z,88.06
2024-02-29T06:27:18.592Z,88.19
2024-02-29T06:30:05.432Z,87.93
2024-02-29T06:32:50.701Z,88.05
2024-02-29T06:35:36.024Z,88.46
2024-02-29T06:38:21.972Z,88.24
2024-02-29T06:41:10.434Z,88.13
2024-02-29T06:43:55.584Z,87.92
2024-02-29T06:46:40.925Z,88.85
2024-02-29T06:49:26.316Z,89.19
2024-02-29T06:52:11.764Z,89.28
2024-02-29T06:54:57.346Z,89.00
2024-02-29T06:57:43.464Z,88.75
2024-02-29T07:00:28.672Z,89.13
2024-02-29T07:03:13.895Z,89.26
2024-02-29T07:05:59.519Z,89.04
2024-02-29T07:08:44.986Z,89.08
2024-02-29T07:11:31.953Z,88.82
2024-02-29T07:14:17.787Z,89.01
2024-02-29T07:17:02.917Z,89.31
2024-02-29T07:19:48.338Z,89.64
2024-02-29T07:22:33.511Z,89.98
2024-02-29T07:25:18.739Z,90.57
2024-02-29T07:28:04.690Z,90.06
2024-02-29T07:30:50.414Z,90.71
2024-02-29T07:33:36.584Z,91.03
2024-02-29T07:36:22.922Z,90.55
2024-02-29T07:39:08.722Z,90.92
2024-02-29T07:41:54.237Z,90.92
2024-02-29T07:44:39.575Z,91.33
2024-02-29T07:47:24.848Z,91.01
2024-02-29T07:50:11.004Z,91.77
2024-02-29T07:52:56.215Z,91.62
2024-02-29T07:55:41.687Z,91.79
2024-02-29T07:58:27.580Z,91.65
2024-02-29T08:01:12.964Z,91.88
2024-02-29T08:03:59.695Z,92.03
2024-02-29T08:06:45.194Z,91.57
2024-02-29T08:09:30.631Z,91.78
2024-02-29T08:12:15.996Z,91.93
2024-02-29T08:15:01.405Z,91.67
2024-02-29T08:17:47.898Z,92.07
2024-02-29T08:20:33.213Z,92.54
2024-02-29T08:23:18.651Z,92.18
2024-02-29T08:26:11.046Z,92.47
2024-02-29T08:28:56.472Z,92.00
2024-02-29T08:31:42.866Z,92.74
2024-02-29T08:34:28.525Z,93.02
2024-02-29T08:37:14.107Z,92.54
2024-02-29T08:39:59.528Z,92.00
2024-02-29T08:42:44.915Z,91.55
2024-02-29T08:45:30.667Z,91.39
2024-02-29T08:48:15.879Z,90.85
2024-02-29T08:51:01.285Z,90.36
2024-02-29T08:53:47.030Z,90.60
2024-02-29T08:56:32.322Z,89.53
2024-02-29T08:59:18.717Z,89.53
2024-02-29T09:02:05.697Z,89.08
2024-02-29T09:04:51.621Z,88.93
2024-02-29T09:07:37.376Z,88.74
2024-02-29T09:10:23.163Z,88.51
2024-02-29T09:13:20.464Z,88.11
2024-02-29T09:16:14.065Z,87.73
2024-02-29T09:19:02.632Z,87.75
2024-02-29T09:21:49.359Z,86.71
2024-02-29T09:24:34.642Z,86.35
2024-02-29T09:27:20.443Z,86.15
2024-02-29T09:30:06.934Z,85.63
2024-02-29T09:32:54.060Z,85.52
2024-02-29T09:35:39.621Z,85.46
2024-02-29T09:38:26.081Z,85.50
2024-02-29T09:44:05.256Z,84.95
2024-02-29T09:46:51.689Z,84.89
2024-02-29T09:49:37.102Z,84.50
2024-02-29T09:52:26.379Z,84.25
2024-02-29T09:55:16.610Z,84.42
2024-02-29T09:58:03.007Z,84.18
2024-02-29T10:00:49.154Z,83.60
2024-02-29T10:03:34.661Z,81.77
2024-02-29T10:06:20.522Z,80.93
2024-02-29T10:09:06.003Z,80.15
2024-02-29T10:11:54.455Z,79.53
2024-02-29T10:14:39.724Z,79.42
2024-02-29T10:17:25.701Z,79.67
2024-02-29T10:20:14.333Z,78.93
2024-02-29T10:22:59.876Z,79.08
2024-02-29T10:25:49.494Z,78.15
2024-02-29T10:28:34.912Z,77.42
2024-02-29T10:31:20.391Z,77.53
2024-02-29T10:34:05.858Z,76.96
2024-02-29T10:36:51.551Z,76.68
2024-02-29T10:39:39.690Z,76.44
2024-02-29T10:42:25.428Z,76.12
2024-02-29T10:45:15.324Z,75.96
2024-02-29T10:48:38.694Z,74.38
2024-02-29T10:51:42.290Z,74.75
2024-02-29T10:54:43.397Z,74.41
2024-02-29T10:57:43.752Z,73.69
2024-02-29T11:00:29.250Z,74.72
2024-02-29T11:03:14.660Z,73.43
2024-02-29T11:06:01.884Z,73.20
2024-02-29T11:08:47.878Z,73.83
2024-02-29T11:11:33.044Z,71.42
2024-02-29T11:14:21.608Z,71.51
2024-02-29T11:17:06.973Z,71.00
2024-02-29T11:20:08.407Z,72.09
2024-02-29T11:23:10.517Z,70.87
2024-02-29T11:25:58.318Z,71.08
2024-02-29T11:28:43.868Z,71.01
2024-02-29T11:31:28.967Z,69.41
2024-02-29T11:34:17.594Z,70.32
2024-02-29T11:37:06.337Z,69.74
2024-02-29T11:39:52.225Z,68.52
2024-02-29T11:42:39.454Z,69.26
2024-02-29T11:45:27.021Z,67.23
2024-02-29T11:48:12.478Z,67.13
2024-02-29T11:50:57.831Z,66.89
2024-02-29T11:53:44.822Z,66.80
2024-02-29T11:56:31.252Z,66.14
2024-02-29T11:59:19.591Z,66.08
2024-02-29T12:02:07.030Z,66.13
2024-02-29T12:04:52.888Z,65.29
2024-02-29T12:07:38.494Z,66.24
2024-02-29T12:10:24.988Z,65.28
2024-02-29T12:13:10.693Z,65.18
2024-02-29T12:15:57.194Z,64.10
2024-02-29T12:18:42.997Z,63.60
2024-02-29T12:21:28.546Z,64.23
2024-02-29T12:24:14.524Z,64.36
2024-02-29T12:27:00.291Z,64.46
2024-02-29T12:29:45.739Z,65.07
2024-02-29T12:32:30.988Z,64.10
2024-02-29T12:35:17.701Z,63.72
2024-02-29T12:38:04.478Z,64.28
2024-02-29T12:40:53.073Z,63.90
2024-02-29T12:43:39.950Z,64.02
2024-02-29T12:46:26.340Z,64.62
2024-02-29T12:49:12.129Z,64.66
2024-02-29T12:51:57.912Z,62.95
2024-02-29T12:54:43.519Z,61.68
2024-02-29T12:57:28.705Z,62.08
2024-02-29T13:00:21.109Z,62.60
2024-02-29T13:03:08.901Z,61.83
2024-02-29T13:05:55.397Z,61.59
2024-02-29T13:08:40.714Z,59.75
2024-02-29T13:11:26.095Z,59.29
2024-02-29T13:14:11.681Z,59.07
2024-02-29T13:16:57.559Z,58.93
2024-02-29T13:19:42.781Z,60.08
2024-02-29T13:22:28.435Z,60.88
2024-02-29T13:43:41.114Z,57.49
2024-02-29T13:46:29.785Z,56.43
2024-02-29T13:49:21.654Z,57.55
2024-02-29T13:52:08.616Z,58.16
2024-02-29T13:54:53.938Z,58.60
2024-02-29T13:57:40.363Z,58.59
2024-02-29T14:00:26.018Z,58.70
2024-02-29T14:03:12.805Z,58.67
2024-02-29T14:05:58.164Z,58.63
2024-02-29T14:08:43.970Z,59.18
2024-02-29T14:11:29.617Z,58.97
2024-02-29T14:14:15.481Z,58.72
2024-02-29T14:17:02.121Z,58.50
2024-02-29T14:19:47.380Z,58.81
2024-02-29T14:22:33.661Z,59.49
2024-02-29T14:25:19.601Z,59.52
2024-02-29T14:28:05.284Z,60.54
2024-02-29T14:30:50.384Z,60.82
2024-02-29T14:33:36.162Z,60.12
2024-02-29T14:36:21.884Z,60.22
2024-02-29T14:39:12.891Z,60.30
2024-02-29T14:41:58.589Z,60.03
2024-02-29T14:44:44.007Z,60.65
2024-02-29T14:47:30.198Z,60.10
2024-02-29T14:50:15.497Z,60.55
2024-02-29T14:53:01.049Z,60.72
2024-02-29T14:55:46.635Z,60.32
2024-02-29T14:58:32.109Z,59.83
2024-02-29T15:01:17.822Z,60.37
2024-02-29T15:04:03.009Z,60.40
2024-02-29T15:06:48.454Z,60.74
2024-02-29T15:09:33.932Z,61.36
2024-02-29T15:12:19.297Z,61.83
2024-02-29T15:15:05.307Z,62.13
2024-02-29T15:17:50.853Z,62.57
2024-02-29T15:20:36.352Z,62.96
2024-02-29T15:23:21.853Z,63.34
2024-02-29T15:26:11.622Z,63.61
2024-02-29T15:28:56.627Z,63.88
2024-02-29T15:31:43.272Z,64.51
2024-02-29T15:34:28.804Z,64.73
2024-02-29T15:37:14.138Z,64.72
2024-02-29T15:40:00.702Z,64.65
2024-02-29T15:42:45.747Z,64.96
2024-02-29T15:45:31.095Z,65.07
2024-02-29T15:48:16.485Z,65.11
2024-02-29T15:51:02.194Z,65.11
2024-02-29T15:53:47.782Z,65.16
2024-02-29T15:56:33.055Z,65.29
2024-02-29T15:59:18.491Z,65.27
2024-02-29T16:02:04.123Z,65.48
2024-02-29T16:04:49.534Z,65.62
2024-02-29T16:07:34.776Z,65.67
2024-02-29T16:10:20.146Z,65.52
2024-02-29T16:13:05.987Z,66.01
2024-02-29T16:15:51.441Z,65.99
2024-02-29T16:18:37.033Z,66.50
2024-02-29T16:21:22.339Z,66.53
2024-02-29T16:24:07.967Z,66.68
2024-02-29T16:26:56.454Z,66.51
2024-02-29T16:29:41.735Z,66.88
2024-02-29T16:32:27.049Z,67.35
2024-02-29T16:35:12.928Z,67.42
2024-02-29T16:37:59.611Z,68.19
2024-02-29T16:40:45.649Z,67.76
2024-02-29T16:43:31.098Z,67.74
2024-02-29T16:46:17.952Z,67.68
2024-02-29T16:49:03.153Z,67.76
2024-02-29T16:51:48.501Z,68.10
2024-02-29T16:54:33.705Z,68.14
2024-02-29T16:57:19.384Z,68.30
2024-02-29T17:00:05.259Z,68.43
2024-02-29T17:02:50.768Z,68.63
2024-02-29T17:05:35.836Z,69.16
2024-02-29T17:08:21.303Z,69.24
2024-02-29T17:11:06.912Z,69.40
2024-02-29T17:13:52.779Z,69.74
2024-02-29T17:16:38.563Z,69.77
2024-02-29T17:19:24.176Z,69.74
2024-02-29T17:22:09.594Z,70.15
2024-02-29T17:24:58.840Z,70.14
2024-02-29T17:27:44.326Z,70.37
2024-02-29T17:30:29.699Z,70.53
2024-02-29T17:33:15.034Z,71.11
2024-02-29T17:36:00.090Z,71.02
2024-02-29T17:38:45.720Z,71.11
2024-02-29T17:41:31.201Z,71.08
2024-02-29T17:44:20.172Z,71.10
2024-02-29T17:47:05.868Z,71.58
2024-02-29T17:49:50.891Z,72.20
2024-02-29T17:52:36.152Z,72.25
2024-02-29T17:55:21.608Z,72.32
2024-02-29T17:58:06.661Z,72.16
2024-02-29T18:00:52.254Z,72.40
2024-02-29T18:03:37.471Z,72.65
2024-02-29T18:06:23.006Z,72.87
2024-02-29T18:09:11.433Z,72.72
2024-02-29T18:11:56.613Z,73.01
2024-02-29T18:14:41.763Z,72.91
2024-02-29T18:17:27.276Z,73.06
2024-02-29T18:20:15.620Z,73.55
2024-02-29T18:23:00.777Z,73.39
2024-02-29T18:25:47.483Z,73.41
2024-02-29T18:28:32.766Z,73.46
2024-02-29T18:34:24.971Z,74.10
2024-02-29T18:37:10.565Z,73.91
2024-02-29T18:39:55.924Z,74.36
2024-02-29T18:42:41.797Z,74.63
2024-02-29T18:45:26.976Z,74.53
2024-02-29T18:48:12.820Z,74.95
2024-02-29T18:50:58.272Z,74.87
2024-02-29T18:53:43.665Z,74.80
2024-02-29T18:56:28.709Z,75.22
2024-02-29T18:59:15.458Z,75.15
2024-02-29T19:02:02.930Z,75.32
2024-02-29T19:04:52.594Z,75.46
2024-02-29T19:07:38.199Z,75.58
2024-02-29T19:10:24.288Z,75.90
2024-02-29T19:13:09.528Z,75.94
2024-02-29T19:15:54.916Z,76.07
2024-02-29T19:18:41.829Z,76.18
2024-02-29T19:21:26.936Z,76.11
2024-02-29T19:24:12.638Z,76.57
2024-02-29T19:26:58.122Z,76.60
2024-02-29T19:29:43.613Z,76.03
2024-02-29T19:32:28.634Z,76.37
2024-02-29T19:35:13.947Z,76.58
2024-02-29T19:37:59.368Z,76.59
2024-02-29T19:40:44.470Z,76.73
2024-02-29T19:43:29.921Z,76.24
2024-02-29T19:46:15.061Z,76.37
2024-02-29T19:49:00.859Z,76.76
2024-02-29T19:51:46.121Z,77.34
2024-02-29T19:54:31.218Z,77.72
2024-02-29T19:57:16.161Z,77.18
2024-02-29T20:00:01.552Z,77.28
2024-02-29T20:02:46.753Z,77.77
2024-02-29T20:05:32.009Z,77.85
2024-02-29T20:08:17.245Z,78.51
2024-02-29T20:11:02.689Z,78.70
2024-02-29T20:13:48.842Z,78.67
2024-02-29T20:16:34.509Z,79.02
2024-02-29T20:19:19.904Z,79.11
2024-02-29T20:22:05.248Z,79.14
2024-02-29T20:24:51.264Z,79.78
2024-02-29T20:27:37.255Z,79.40
2024-02-29T20:30:23.614Z,79.34
2024-02-29T20:33:09.086Z,79.10
2024-02-29T20:35:54.294Z,79.37
2024-02-29T20:38:39.718Z,79.16
2024-02-29T20:41:25.958Z,79.76
2024-02-29T20:44:11.281Z,79.77
2024-02-29T20:46:56.674Z,79.40
2024-02-29T20:49:43.417Z,80.00
2024-02-29T20:52:28.778Z,80.05
2024-02-29T20:55:14.578Z,80.37
2024-02-29T20:57:59.719Z,80.18
2024-02-29T21:00:45.184Z,80.54
2024-02-29T21:03:30.428Z,80.48
2024-02-29T21:06:16.645Z,80.02
2024-02-29T21:09:01.784Z,80.17
2024-02-29T21:11:47.571Z,81.05
2024-02-29T21:14:32.880Z,80.88
2024-02-29T21:17:18.056Z,81.17
2024-02-29T21:20:03.755Z,81.21
2024-02-29T21:22:49.286Z,81.56
2024-02-29T21:25:34.955Z,81.30
2024-02-29T21:28:20.566Z,81.82
2024-02-29T21:31:05.644Z,82.34
2024-02-29T21:33:50.947Z,82.00
2024-02-29T21:36:36.161Z,82.11
2024-02-29T21:39:28.468Z,81.98
2024-02-29T21:42:22.589Z,82.01
2024-02-29T21:45:08.898Z,82.09
2024-02-29T21:47:55.447Z,82.21
2024-02-29T21:50:41.924Z,82.38
2024-02-29T21:53:27.414Z,82.53
2024-02-29T21:56:16.207Z,81.93
2024-02-29T21:59:01.131Z,82.31
2024-02-29T22:01:47.825Z,82.09
2024-02-29T22:04:33.509Z,82.62
2024-02-29T22:07:18.969Z,82.61
2024-02-29T22:10:04.582Z,82.74
2024-02-29T22:12:49.642Z,82.68
2024-02-29T22:15:35.140Z,82.58
2024-02-29T22:18:20.556Z,82.22
2024-02-29T22:21:06.003Z,82.45
2024-02-29T22:23:51.344Z,82.34
2024-02-29T22:26:36.656Z,82.55
2024-02-29T22:29:23.235Z,82.69
2024-02-29T22:32:08.627Z,82.70
2024-02-29T22:34:53.977Z,82.56
2024-02-29T22:37:40.037Z,82.76
2024-02-29T22:40:26.239Z,83.00
2024-02-29T22:43:12.763Z,82.90
2024-02-29T22:45:57.849Z,82.43
2024-02-29T22:48:43.358Z,82.49
2024-02-29T22:51:28.512Z,82.50
2024-02-29T22:54:13.801Z,81.92
2024-02-29T22:56:59.271Z,81.66
2024-02-29T22:59:44.539Z,81.88
2024-02-29T23:02:29.911Z,82.24
2024-02-29T23:05:15.654Z,81.77
2024-02-29T23:08:01.192Z,81.66
2024-02-29T23:10:46.808Z,81.35
2024-02-29T23:13:32.169Z,81.66
2024-02-29T23:16:17.728Z,81.34
2024-02-29T23:19:03.044Z,81.38
2024-02-29T23:21:48.698Z,81.88
2024-02-29T23:24:34.412Z,81.96
2024-02-29T23:27:19.648Z,81.68
2024-02-29T23:30:09.506Z,82.07
2024-02-29T23:32:54.581Z,81.84
2024-02-29T23:35:39.940Z,81.96
2024-02-29T23:38:25.323Z,82.64
2024-02-29T23:41:10.727Z,82.00
2024-02-29T23:43:56.140Z,82.10
2024-02-29T23:46:42.700Z,82.01
2024-02-29T23:49:28.093Z,82.24
2024-02-29T23:52:13.570Z,81.95
2024-02-29T23:54:58.988Z,81.41
2024-02-29T23:57:44.726Z,81.61
